createdAt,value
2023-03-18T00:01:12.816Z,66.18
2023-03-18T00:03:40.982Z,66.84
2023-03-18T00:06:19.479Z,66.63
2023-03-18T00:08:49.211Z,66.80
2023-03-18T00:11:19.570Z,66.07
2023-03-18T00:13:49.531Z,67.03
2023-03-18T00:16:17.878Z,67.01
2023-03-18T00:18:46.000Z,66.48
2023-03-18T00:21:14.483Z,66.49
2023-03-18T00:23:43.001Z,66.56
2023-03-18T00:26:10.776Z,66.31
2023-03-18T00:28:42.313Z,66.70
2023-03-18T00:31:13.337Z,66.38
2023-03-18T00:33:46.801Z,66.42
2023-03-18T00:36:18.569Z,66.27
2023-03-18T00:38:51.179Z,66.46
2023-03-18T00:41:19.332Z,67.15
2023-03-18T00:43:57.876Z,65.91
2023-03-18T00:46:28.988Z,65.84
2023-03-18T00:49:00.793Z,67.03
2023-03-18T00:51:31.832Z,66.53
2023-03-18T00:54:03.201Z,66.59
2023-03-18T00:56:32.724Z,65.95
2023-03-18T00:59:01.446Z,65.60
2023-03-18T01:01:29.985Z,66.08
2023-03-18T01:04:00.849Z,66.07
2023-03-18T01:06:32.558Z,66.53
2023-03-18T01:09:01.901Z,66.52
2023-03-18T01:11:30.357Z,66.85
2023-03-18T01:13:59.981Z,65.96
2023-03-18T01:16:28.832Z,65.98
2023-03-18T01:18:57.520Z,66.20
2023-03-18T01:21:26.178Z,66.48
2023-03-18T01:23:57.780Z,66.83
2023-03-18T01:26:27.283Z,66.19
2023-03-18T01:28:58.030Z,66.66
2023-03-18T01:31:26.106Z,66.09
2023-03-18T01:33:58.325Z,66.41
2023-03-18T01:36:26.064Z,66.35
2023-03-18T01:39:07.947Z,67.00
2023-03-18T01:41:37.320Z,66.70
2023-03-18T01:44:14.435Z,66.55
2023-03-18T01:46:45.967Z,66.45
2023-03-18T01:49:29.068Z,66.12
2023-03-18T01:52:02.868Z,66.36
2023-03-18T01:54:34.120Z,66.39
2023-03-18T01:57:02.951Z,66.85
2023-03-18T01:59:34.098Z,66.14
2023-03-18T02:02:11.503Z,66.18
2023-03-18T02:04:46.385Z,66.67
2023-03-18T02:07:21.313Z,65.99
2023-03-18T02:09:51.311Z,66.07
2023-03-18T02:12:24.875Z,66.60
2023-03-18T02:14:57.131Z,66.93
2023-03-18T02:17:28.406Z,66.28
2023-03-18T02:20:18.957Z,66.11
2023-03-18T02:22:54.185Z,66.82
2023-03-18T02:25:50.075Z,67.06
2023-03-18T02:28:23.981Z,66.38
2023-03-18T02:30:56.349Z,66.45
2023-03-18T02:33:30.088Z,67.16
2023-03-18T02:36:04.742Z,66.54
2023-03-18T02:38:44.245Z,67.08
2023-03-18T02:41:20.744Z,66.61
2023-03-18T02:43:50.608Z,66.98
2023-03-18T02:46:41.276Z,66.69
2023-03-18T02:49:11.303Z,67.29
2023-03-18T02:51:40.074Z,66.95
2023-03-18T02:54:30.359Z,67.17
2023-03-18T02:56:59.105Z,67.37
2023-03-18T02:59:27.807Z,67.51
2023-03-18T03:01:58.222Z,67.80
2023-03-18T03:04:27.343Z,67.05
2023-03-18T03:06:57.857Z,67.53
2023-03-18T03:09:37.178Z,67.10
2023-03-18T03:12:07.985Z,67.96
2023-03-18T03:14:41.082Z,67.73
2023-03-18T03:17:10.232Z,67.67
2023-03-18T03:19:38.990Z,67.83
2023-03-18T03:22:07.670Z,66.71
2023-03-18T03:24:37.722Z,67.38
2023-03-18T03:27:07.995Z,67.35
2023-03-18T03:29:35.856Z,67.88
2023-03-18T03:32:04.551Z,67.46
2023-03-18T03:34:32.282Z,67.15
2023-03-18T03:37:00.388Z,67.41
2023-03-18T03:39:28.584Z,67.06
2023-03-18T03:41:57.103Z,66.85
2023-03-18T03:44:24.732Z,66.32
2023-03-18T03:46:53.321Z,65.94
2023-03-18T03:49:23.238Z,66.00
2023-03-18T03:51:51.828Z,66.03
2023-03-18T03:54:20.565Z,65.50
2023-03-18T03:56:49.100Z,65.27
2023-03-18T03:59:17.861Z,64.92
2023-03-18T04:02:04.957Z,65.18
2023-03-18T04:04:32.990Z,64.87
2023-03-18T04:07:01.771Z,64.80
2023-03-18T04:09:29.716Z,65.18
2023-03-18T04:11:58.191Z,65.44
2023-03-18T04:14:26.719Z,65.19
2023-03-18T04:16:58.429Z,64.97
2023-03-18T04:19:27.828Z,64.87
2023-03-18T04:21:56.923Z,64.52
2023-03-18T04:24:26.540Z,64.26
2023-03-18T04:26:55.340Z,64.20
2023-03-18T04:29:23.707Z,64.58
2023-03-18T04:31:52.056Z,64.53
2023-03-18T04:34:22.769Z,64.49
2023-03-18T04:36:51.037Z,65.04
2023-03-18T04:39:19.533Z,65.03
2023-03-18T04:41:48.468Z,64.66
2023-03-18T04:44:17.584Z,65.09
2023-03-18T04:46:56.561Z,65.03
2023-03-18T04:49:25.834Z,65.75
2023-03-18T04:51:55.658Z,65.21
2023-03-18T04:54:29.311Z,66.36
2023-03-18T04:57:01.894Z,65.36
2023-03-18T04:59:33.026Z,65.59
2023-03-18T05:02:05.116Z,65.46
2023-03-18T05:04:34.177Z,66.15
2023-03-18T05:07:02.684Z,65.29
2023-03-18T05:09:36.177Z,65.09
2023-03-18T05:12:05.846Z,65.70
2023-03-18T05:14:37.791Z,65.31
2023-03-18T05:17:06.225Z,64.32
2023-03-18T05:19:37.977Z,64.52
2023-03-18T05:22:14.231Z,63.93
2023-03-18T05:24:43.865Z,63.70
2023-03-18T05:27:12.553Z,62.87
2023-03-18T05:29:45.212Z,62.72
2023-03-18T05:32:20.831Z,61.97
2023-03-18T05:34:55.299Z,62.23
2023-03-18T05:37:24.169Z,61.44
2023-03-18T05:40:00.469Z,61.16
2023-03-18T05:42:29.588Z,61.94
2023-03-18T05:44:58.395Z,60.21
2023-03-18T05:47:28.313Z,61.22
2023-03-18T05:50:05.340Z,60.02
2023-03-18T05:52:35.718Z,60.37
2023-03-18T05:55:06.822Z,60.20
2023-03-18T05:57:39.134Z,59.74
2023-03-18T06:00:10.772Z,59.12
2023-03-18T06:02:47.246Z,58.07
2023-03-18T06:05:16.939Z,57.56
2023-03-18T06:07:47.474Z,57.43
2023-03-18T06:10:15.621Z,57.75
2023-03-18T06:12:46.076Z,56.54
2023-03-18T06:15:13.867Z,55.13
2023-03-18T06:17:42.502Z,54.08
2023-03-18T06:20:12.256Z,54.52
2023-03-18T06:22:40.750Z,53.46
2023-03-18T06:25:08.643Z,53.38
2023-03-18T06:27:39.458Z,53.05
2023-03-18T06:30:07.977Z,53.70
2023-03-18T06:32:38.633Z,55.12
2023-03-18T06:35:07.452Z,54.68
2023-03-18T06:37:39.412Z,53.70
2023-03-18T06:40:09.681Z,52.67
2023-03-18T06:42:38.559Z,52.68
2023-03-18T06:45:18.583Z,52.08
2023-03-18T06:47:53.823Z,52.68
2023-03-18T06:50:22.576Z,53.31
2023-03-18T06:52:51.146Z,50.96
2023-03-18T06:55:26.647Z,50.06
2023-03-18T06:57:55.285Z,50.40
2023-03-18T07:00:28.954Z,51.09
2023-03-18T07:02:58.529Z,50.77
2023-03-18T07:05:28.744Z,51.00
2023-03-18T07:07:57.047Z,50.89
2023-03-18T07:10:28.490Z,50.72
2023-03-18T07:13:03.661Z,50.16
2023-03-18T07:15:32.253Z,51.26
2023-03-18T07:18:03.444Z,48.92
2023-03-18T07:20:33.168Z,51.21
2023-03-18T07:23:02.074Z,49.54
2023-03-18T07:25:32.372Z,51.40
2023-03-18T07:28:01.023Z,49.28
2023-03-18T07:30:29.322Z,48.72
2023-03-18T07:32:58.315Z,47.27
2023-03-18T07:35:28.368Z,47.80
2023-03-18T07:37:57.263Z,47.76
2023-03-18T07:40:24.941Z,47.68
2023-03-18T07:42:54.117Z,47.47
2023-03-18T07:45:21.919Z,47.22
2023-03-18T07:47:50.550Z,46.98
2023-03-18T07:50:18.820Z,46.54
2023-03-18T07:52:47.978Z,45.91
2023-03-18T07:55:16.539Z,46.17
2023-03-18T07:57:44.663Z,44.41
2023-03-18T08:00:14.154Z,45.17
2023-03-18T08:02:42.841Z,44.47
2023-03-18T08:05:11.223Z,44.79
2023-03-18T08:07:39.504Z,44.79
2023-03-18T08:10:09.238Z,45.10
2023-03-18T08:12:51.659Z,43.78
2023-03-18T08:15:20.346Z,43.87
2023-03-18T08:17:48.753Z,44.03
2023-03-18T08:20:16.918Z,43.37
2023-03-18T08:22:46.256Z,44.32
2023-03-18T08:25:14.166Z,42.45
2023-03-18T08:27:42.626Z,43.15
2023-03-18T08:30:11.388Z,43.19
2023-03-18T08:32:39.534Z,45.26
2023-03-18T08:35:07.908Z,42.95
2023-03-18T08:37:37.064Z,41.99
2023-03-18T08:40:06.299Z,42.51
2023-03-18T08:42:34.450Z,41.71
2023-03-18T08:45:03.001Z,41.98
2023-03-18T08:47:32.032Z,43.40
2023-03-18T08:49:59.653Z,42.53
2023-03-18T08:52:27.907Z,41.62
2023-03-18T08:54:55.732Z,40.44
2023-03-18T08:57:24.171Z,41.04
2023-03-18T08:59:52.043Z,41.01
2023-03-18T09:02:20.769Z,40.56
2023-03-18T09:04:49.532Z,41.86
2023-03-18T09:07:19.187Z,40.44
2023-03-18T09:09:46.976Z,40.75
2023-03-18T09:12:15.658Z,39.16
2023-03-18T09:14:44.384Z,39.99
2023-03-18T09:17:13.067Z,39.17
2023-03-18T09:19:40.978Z,40.79
2023-03-18T09:22:12.433Z,40.62
2023-03-18T09:24:41.258Z,40.26
2023-03-18T09:27:09.678Z,40.45
2023-03-18T09:29:37.438Z,41.04
2023-03-18T09:32:06.332Z,40.83
2023-03-18T09:34:34.164Z,40.80
2023-03-18T09:37:02.587Z,39.59
2023-03-18T09:39:30.333Z,39.09
2023-03-18T09:42:17.348Z,40.48
2023-03-18T09:44:45.619Z,40.29
2023-03-18T09:47:36.666Z,40.79
2023-03-18T09:50:11.165Z,40.25
2023-03-18T09:52:48.953Z,41.45
2023-03-18T09:55:28.041Z,42.03
2023-03-18T09:58:03.562Z,40.92
2023-03-18T10:00:35.616Z,40.40
2023-03-18T10:03:20.156Z,40.81
2023-03-18T10:05:52.854Z,40.70
2023-03-18T10:08:52.344Z,39.97
2023-03-18T10:11:27.961Z,40.69
2023-03-18T10:14:09.297Z,40.21
2023-03-18T10:17:06.517Z,40.86
2023-03-18T10:19:35.262Z,41.08
2023-03-18T10:22:30.228Z,39.88
2023-03-18T10:25:01.777Z,40.63
2023-03-18T10:28:06.970Z,40.98
2023-03-18T10:30:46.142Z,39.49
2023-03-18T10:33:19.278Z,39.62
2023-03-18T10:36:13.748Z,40.59
2023-03-18T10:38:45.173Z,40.72
2023-03-18T10:41:17.935Z,40.46
2023-03-18T10:43:48.433Z,39.95
2023-03-18T10:46:17.377Z,41.01
2023-03-18T10:48:52.803Z,40.06
2023-03-18T10:51:31.666Z,39.75
2023-03-18T10:54:22.584Z,39.34
2023-03-18T10:56:51.253Z,38.82
2023-03-18T10:59:21.060Z,37.75
2023-03-18T11:01:54.658Z,39.15
2023-03-18T11:04:24.291Z,37.44
2023-03-18T11:07:04.006Z,37.66
2023-03-18T11:09:34.460Z,37.46
2023-03-18T11:12:29.414Z,37.68
2023-03-18T11:14:58.412Z,39.17
2023-03-18T11:17:35.691Z,37.09
2023-03-18T11:20:21.007Z,37.92
2023-03-18T11:22:52.231Z,38.11
2023-03-18T11:25:24.691Z,38.11
2023-03-18T11:28:03.600Z,37.93
2023-03-18T11:30:46.991Z,38.16
2023-03-18T11:33:17.789Z,37.49
2023-03-18T11:35:58.764Z,37.01
2023-03-18T11:38:29.883Z,36.83
2023-03-18T11:41:18.494Z,37.36
2023-03-18T11:44:11.690Z,37.53
2023-03-18T11:47:16.736Z,35.64
2023-03-18T11:49:45.018Z,35.64
2023-03-18T11:52:40.003Z,36.07
2023-03-18T11:55:18.668Z,35.60
2023-03-18T11:58:00.145Z,34.94
2023-03-18T12:00:34.601Z,36.40
2023-03-18T12:03:31.519Z,35.97
2023-03-18T12:06:14.705Z,35.46
2023-03-18T12:09:21.571Z,35.66
2023-03-18T12:11:49.414Z,35.49
2023-03-18T12:14:26.105Z,35.75
2023-03-18T12:17:08.508Z,35.63
2023-03-18T12:19:57.681Z,36.02
2023-03-18T12:22:51.608Z,35.91
2023-03-18T12:25:30.898Z,35.90
2023-03-18T12:28:11.339Z,35.08
2023-03-18T12:30:48.060Z,34.97
2023-03-18T12:33:37.499Z,36.01
2023-03-18T12:36:24.280Z,35.45
2023-03-18T12:39:31.128Z,35.54
2023-03-18T12:42:03.386Z,35.42
2023-03-18T12:44:46.951Z,33.92
2023-03-18T12:47:15.692Z,34.57
2023-03-18T12:49:57.015Z,35.12
2023-03-18T12:52:46.829Z,34.83
2023-03-18T12:55:48.125Z,35.21
2023-03-18T12:58:19.583Z,35.23
2023-03-18T13:00:54.173Z,34.69
2023-03-18T13:03:35.060Z,35.07
2023-03-18T13:06:23.326Z,35.16
2023-03-18T13:09:22.465Z,34.62
2023-03-18T13:12:12.877Z,35.25
2023-03-18T13:15:25.918Z,35.35
2023-03-18T13:17:57.466Z,35.68
2023-03-18T13:20:29.187Z,35.19
2023-03-18T13:23:16.411Z,35.96
2023-03-18T13:26:05.962Z,35.52
2023-03-18T13:28:45.435Z,35.76
2023-03-18T13:31:39.354Z,35.56
2023-03-18T13:34:45.450Z,35.14
2023-03-18T13:37:30.724Z,34.95
2023-03-18T13:40:36.857Z,35.62
2023-03-18T13:43:06.351Z,34.42
2023-03-18T13:45:39.938Z,34.49
2023-03-18T13:48:08.788Z,35.12
2023-03-18T13:50:40.332Z,35.34
2023-03-18T13:53:29.699Z,35.58
2023-03-18T13:56:00.776Z,35.04
2023-03-18T13:58:41.839Z,36.40
2023-03-18T14:01:33.618Z,35.48
2023-03-18T14:04:33.954Z,35.18
2023-03-18T14:07:23.108Z,35.36
2023-03-18T14:10:18.457Z,35.73
2023-03-18T14:12:48.170Z,35.69
2023-03-18T14:15:17.004Z,35.19
2023-03-18T14:18:03.458Z,35.41
2023-03-18T14:20:39.606Z,35.65
2023-03-18T14:23:28.208Z,35.90
2023-03-18T14:26:24.730Z,36.69
2023-03-18T14:29:22.903Z,36.46
2023-03-18T14:31:58.244Z,36.42
2023-03-18T14:34:28.526Z,36.02
2023-03-18T14:36:56.813Z,36.44
2023-03-18T14:39:43.584Z,36.79
2023-03-18T14:42:32.194Z,36.92
2023-03-18T14:45:12.153Z,36.40
2023-03-18T14:47:46.822Z,36.92
2023-03-18T14:50:29.557Z,37.12
2023-03-18T14:53:03.312Z,37.12
2023-03-18T14:55:34.293Z,37.17
2023-03-18T14:58:03.272Z,37.26
2023-03-18T15:00:36.010Z,36.40
2023-03-18T15:03:11.920Z,36.72
2023-03-18T15:05:42.394Z,36.89
2023-03-18T15:08:18.653Z,36.80
2023-03-18T15:10:49.936Z,37.08
2023-03-18T15:13:20.386Z,36.91
2023-03-18T15:15:49.198Z,36.89
2023-03-18T15:18:34.569Z,37.23
2023-03-18T15:21:28.950Z,37.24
2023-03-18T15:23:57.524Z,37.52
2023-03-18T15:26:30.971Z,37.81
2023-03-18T15:29:00.769Z,37.61
2023-03-18T15:31:39.296Z,38.28
2023-03-18T15:34:16.076Z,38.63
2023-03-18T15:36:46.849Z,38.40
2023-03-18T15:39:33.935Z,38.75
2023-03-18T15:42:03.794Z,38.45
2023-03-18T15:44:35.765Z,38.11
2023-03-18T15:47:11.307Z,38.64
2023-03-18T15:49:51.728Z,38.44
2023-03-18T15:52:25.278Z,38.86
2023-03-18T15:54:53.949Z,38.32
2023-03-18T15:57:43.614Z,38.66
2023-03-18T16:00:13.291Z,38.86
2023-03-18T16:02:41.978Z,39.65
2023-03-18T16:05:18.319Z,39.27
2023-03-18T16:07:47.313Z,39.49
2023-03-18T16:10:20.922Z,39.75
2023-03-18T16:12:55.892Z,39.89
2023-03-18T16:15:25.554Z,39.98
2023-03-18T16:17:55.122Z,39.59
2023-03-18T16:20:24.590Z,39.76
2023-03-18T16:22:52.736Z,40.02
2023-03-18T16:25:20.573Z,40.28
2023-03-18T16:27:50.503Z,40.85
2023-03-18T16:30:30.388Z,41.23
2023-03-18T16:32:59.313Z,41.05
2023-03-18T16:35:31.171Z,41.19
2023-03-18T16:38:00.583Z,41.01
2023-03-18T16:40:33.097Z,41.50
2023-03-18T16:43:01.538Z,41.33
2023-03-18T16:45:31.273Z,41.20
2023-03-18T16:48:02.499Z,41.38
2023-03-18T16:50:34.410Z,42.22
2023-03-18T16:53:03.642Z,42.09
2023-03-18T16:55:31.797Z,41.54
2023-03-18T16:58:01.042Z,41.71
2023-03-18T17:00:32.964Z,41.67
2023-03-18T17:03:02.404Z,41.81
2023-03-18T17:05:31.419Z,41.90
2023-03-18T17:07:59.852Z,41.74
2023-03-18T17:10:28.746Z,41.62
2023-03-18T17:13:02.405Z,41.41
2023-03-18T17:15:32.445Z,41.90
2023-03-18T17:18:01.899Z,41.82
2023-03-18T17:20:32.604Z,41.68
2023-03-18T18:27:16.492Z,43.82
2023-03-18T18:29:46.217Z,44.02
2023-03-18T18:32:15.800Z,44.14
2023-03-18T18:34:44.322Z,44.30
2023-03-18T18:37:13.150Z,44.06
2023-03-18T18:39:42.867Z,44.17
2023-03-18T18:42:14.521Z,44.37
2023-03-18T18:44:43.815Z,44.20
2023-03-18T18:47:20.409Z,44.59
2023-03-18T18:49:49.032Z,44.79
2023-03-18T18:52:17.134Z,44.36
2023-03-18T18:54:45.609Z,44.42
2023-03-18T18:57:27.039Z,44.56
2023-03-18T18:59:55.917Z,44.70
2023-03-18T19:02:32.622Z,45.07
2023-03-18T19:05:02.913Z,45.21
2023-03-18T19:07:33.861Z,45.08
2023-03-18T19:10:02.368Z,45.32
2023-03-18T19:12:30.931Z,45.24
2023-03-18T19:14:59.924Z,45.84
2023-03-18T19:17:28.063Z,45.55
2023-03-18T19:19:56.302Z,45.83
2023-03-18T19:22:25.736Z,45.76
2023-03-18T19:24:55.049Z,46.01
2023-03-18T19:27:24.068Z,46.14
2023-03-18T19:30:00.485Z,46.60
2023-03-18T19:32:28.250Z,46.91
2023-03-18T19:34:56.623Z,46.74
2023-03-18T19:37:28.328Z,47.09
2023-03-18T19:39:57.323Z,47.19
2023-03-18T19:42:25.790Z,47.34
2023-03-18T19:44:54.376Z,47.56
2023-03-18T19:47:27.040Z,47.58
2023-03-18T19:49:56.144Z,47.62
2023-03-18T19:52:26.288Z,47.79
2023-03-18T19:54:55.890Z,48.45
2023-03-18T19:57:28.516Z,48.92
2023-03-18T19:59:58.752Z,48.77
2023-03-18T20:02:31.973Z,48.73
2023-03-18T20:05:03.727Z,49.20
2023-03-18T20:07:33.210Z,49.47
2023-03-18T20:10:01.329Z,49.80
2023-03-18T20:12:31.937Z,49.76
2023-03-18T20:15:00.253Z,49.81
2023-03-18T20:17:31.484Z,49.59
2023-03-18T20:20:00.079Z,50.53
2023-03-18T20:22:34.072Z,50.40
2023-03-18T20:25:04.120Z,50.83
2023-03-18T20:27:33.104Z,51.07
2023-03-18T20:30:01.788Z,51.18
2023-03-18T20:32:30.186Z,51.54
2023-03-18T20:34:58.395Z,51.48
2023-03-18T20:37:33.703Z,51.69
2023-03-18T20:40:07.588Z,52.21
2023-03-18T20:42:35.178Z,52.38
2023-03-18T20:45:03.564Z,52.39
2023-03-18T20:47:31.812Z,52.90
2023-03-18T20:49:59.978Z,52.93
2023-03-18T20:52:31.596Z,53.02
2023-03-18T20:55:00.092Z,53.69
2023-03-18T20:57:28.244Z,53.66
2023-03-18T20:59:56.984Z,53.52
2023-03-18T21:02:33.928Z,54.19
2023-03-18T21:05:03.531Z,54.24
2023-03-18T21:07:31.680Z,54.63
2023-03-18T21:10:01.257Z,54.65
2023-03-18T21:12:29.047Z,54.97
2023-03-18T21:14:57.040Z,54.75
2023-03-18T21:17:27.634Z,55.43
2023-03-18T21:20:05.005Z,55.54
2023-03-18T21:22:39.811Z,55.81
2023-03-18T21:25:10.954Z,56.22
2023-03-18T21:27:38.961Z,56.39
2023-03-18T21:30:09.850Z,56.17
2023-03-18T21:32:39.194Z,55.96
2023-03-18T21:35:12.578Z,56.02
2023-03-18T21:37:40.434Z,56.22
2023-03-18T21:40:15.443Z,56.24
2023-03-18T21:42:43.994Z,56.88
2023-03-18T21:45:19.302Z,56.44
2023-03-18T21:51:39.102Z,56.64
2023-03-18T21:54:17.589Z,56.61
2023-03-18T21:56:46.677Z,56.88
2023-03-18T21:59:14.701Z,56.64
2023-03-18T22:01:43.011Z,56.58
2023-03-18T22:04:10.665Z,56.98
2023-03-18T22:06:39.016Z,57.22
2023-03-18T22:09:07.571Z,56.86
2023-03-18T22:11:36.281Z,57.35
2023-03-18T22:14:04.197Z,57.33
2023-03-18T22:16:32.781Z,57.28
2023-03-18T22:19:01.350Z,57.50
2023-03-18T22:21:30.019Z,57.25
2023-03-18T22:24:00.457Z,57.52
2023-03-18T22:26:29.189Z,57.72
2023-03-18T22:28:56.984Z,57.73
2023-03-18T22:31:28.949Z,57.76
2023-03-18T22:33:58.510Z,57.46
2023-03-18T22:36:29.064Z,57.24
2023-03-18T22:38:57.137Z,57.87
2023-03-18T22:41:30.604Z,57.97
2023-03-18T22:44:00.136Z,57.75
2023-03-18T22:46:28.830Z,58.14
2023-03-18T22:48:57.289Z,58.98
2023-03-18T22:51:30.833Z,58.38
2023-03-18T22:53:58.745Z,58.37
2023-03-18T22:56:27.197Z,58.83
2023-03-18T22:58:55.085Z,58.85
2023-03-18T23:01:28.560Z,58.57
2023-03-18T23:03:56.469Z,58.71
2023-03-18T23:06:24.940Z,59.04
2023-03-18T23:08:52.781Z,58.84
2023-03-18T23:11:21.220Z,59.19
2023-03-18T23:13:54.090Z,59.16
2023-03-18T23:16:23.977Z,59.13
2023-03-18T23:18:52.365Z,59.97
2023-03-18T23:21:23.290Z,59.96
2023-03-18T23:23:52.642Z,60.47
2023-03-18T23:26:21.219Z,60.50
2023-03-18T23:28:49.859Z,60.24
2023-03-18T23:31:18.534Z,59.90
2023-03-18T23:33:47.387Z,59.95
2023-03-18T23:36:16.298Z,60.54
2023-03-18T23:38:43.794Z,60.53
2023-03-18T23:41:13.012Z,60.97
2023-03-18T23:43:40.797Z,61.05
2023-03-18T23:46:09.596Z,62.65
2023-03-18T23:48:37.870Z,62.32
2023-03-18T23:51:06.103Z,62.81
2023-03-18T23:53:33.952Z,63.23
2023-03-18T23:56:02.102Z,63.43
2023-03-18T23:58:29.839Z,63.79
